Time;durP1;ratioP1;P1;durP2;ratioP2;P2;SDS_P1;SDS_P2;PMS_P1;PMS_P2;Temp;Humidity;BMP_temperature;BMP_pressure;BME280_temperature;BME280_humidity;BME280_pressure;Samples;Min_cycle;Max_cycle;Signal;HPM_P1;HPM_P2
2023/01/22 00:00:05;;;;;;;23.13;11.65;;;-0.60;98.60;;;;;;5053498;28;20055;-84
2023/01/22 00:02:35;;;;;;;18.00;10.57;;;-0.70;97.90;;;;;;5049285;28;20036;-84
2023/01/22 00:05:00;;;;;;;25.45;10.80;;;-0.70;97.70;;;;;;5065886;28;20071;-86
2023/01/22 00:07:26;;;;;;;21.58;10.50;;;-0.80;97.40;;;;;;5041054;28;20037;-84
2023/01/22 00:09:52;;;;;;;20.40;10.55;;;-0.80;98.10;;;;;;5065387;28;20091;-84
2023/01/22 00:12:17;;;;;;;21.90;11.68;;;-0.80;98.10;;;;;;5041035;28;20044;-85
2023/01/22 00:14:43;;;;;;;20.60;11.15;;;-0.70;98.10;;;;;;5038288;28;20074;-84
2023/01/22 00:17:09;;;;;;;21.63;11.82;;;-0.80;97.80;;;;;;5052844;28;20044;-84
2023/01/22 00:19:35;;;;;;;22.67;13.43;;;-0.80;97.40;;;;;;5064353;28;20591;-84
2023/01/22 00:22:00;;;;;;;26.88;12.45;;;-0.80;97.60;;;;;;5070847;28;20049;-84
2023/01/22 00:24:26;;;;;;;28.05;13.57;;;-0.80;98.30;;;;;;5056697;28;20094;-84
2023/01/22 00:26:51;;;;;;;28.85;14.02;;;-0.80;99.20;;;;;;5036870;28;20044;-84
2023/01/22 00:29:17;;;;;;;30.58;14.18;;;-0.80;99.90;;;;;;5052688;28;20057;-85
2023/01/22 00:31:43;;;;;;;34.00;15.30;;;-0.70;99.90;;;;;;5053283;28;20048;-84
2023/01/22 00:34:09;;;;;;;29.13;13.85;;;-0.70;99.90;;;;;;5067489;28;20048;-85
2023/01/22 00:36:34;;;;;;;33.92;15.27;;;-0.60;99.90;;;;;;5067976;28;20055;-85
2023/01/22 00:39:00;;;;;;;34.65;16.52;;;-0.50;99.90;;;;;;5072475;28;20048;-84
2023/01/22 00:41:26;;;;;;;34.17;15.50;;;-0.60;99.90;;;;;;5085877;28;20288;-83
2023/01/22 00:43:52;;;;;;;34.65;16.15;;;-0.60;99.90;;;;;;5084967;28;20036;-84
2023/01/22 00:46:20;;;;;;;36.28;16.70;;;-0.60;99.90;;;;;;5061995;28;20374;-85
2023/01/22 00:48:48;;;;;;;35.47;15.05;;;-0.60;99.90;;;;;;5043768;28;20062;-84
2023/01/22 00:51:14;;;;;;;37.45;16.50;;;-0.60;99.90;;;;;;5058438;28;20044;-84
2023/01/22 00:53:41;;;;;;;37.97;17.05;;;-0.60;99.90;;;;;;5063621;28;20129;-85
2023/01/22 00:56:07;;;;;;;36.03;15.80;;;-0.60;99.90;;;;;;5076434;28;20052;-86
2023/01/22 00:58:34;;;;;;;38.17;16.30;;;-0.70;99.90;;;;;;5079416;28;20090;-84
2023/01/22 01:01:02;;;;;;;37.92;16.40;;;-0.60;99.90;;;;;;5069620;28;20048;-84
2023/01/22 01:03:31;;;;;;;41.45;16.88;;;-0.80;99.90;;;;;;5064635;28;20567;-84
2023/01/22 01:06:07;;;;;;;37.83;16.58;;;-0.80;99.90;;;;;;5059608;28;20517;-84
2023/01/22 01:08:34;;;;;;;;;;;-0.80;99.90;;;;;;5071218;28;20041;-84
2023/01/22 01:11:03;;;;;;;40.35;16.73;;;-0.90;99.90;;;;;;5071333;28;19924;-84
2023/01/22 01:13:32;;;;;;;41.15;16.95;;;-1.00;99.90;;;;;;5077745;28;20551;-83
2023/01/22 01:16:03;;;;;;;38.97;16.23;;;-1.00;99.90;;;;;;5065114;28;20055;-84
2023/01/22 01:18:31;;;;;;;35.22;16.15;;;-1.00;99.90;;;;;;5054399;28;20798;-84
2023/01/22 01:20:58;;;;;;;39.30;17.83;;;-1.00;99.90;;;;;;5071434;28;20052;-85
2023/01/22 01:23:25;;;;;;;33.05;16.10;;;-1.00;99.90;;;;;;5070019;28;20052;-84
2023/01/22 01:25:51;;;;;;;35.85;15.93;;;-1.00;99.90;;;;;;5066362;28;20052;-84
2023/01/22 01:28:17;;;;;;;33.55;15.57;;;-1.10;99.90;;;;;;5080412;28;20060;-84
2023/01/22 01:30:44;;;;;;;34.90;16.38;;;-1.10;99.90;;;;;;5062141;28;20049;-84
2023/01/22 01:33:10;;;;;;;38.65;16.65;;;-1.10;99.90;;;;;;5072687;28;20419;-84
2023/01/22 01:35:36;;;;;;;39.70;17.35;;;-1.10;99.90;;;;;;5062546;28;20057;-84
2023/01/22 01:38:02;;;;;;;37.45;16.75;;;-1.10;99.90;;;;;;5042764;28;20043;-85
2023/01/22 01:40:27;;;;;;;39.28;16.83;;;-1.10;99.90;;;;;;5092911;28;20123;-84
2023/01/22 01:42:53;;;;;;;34.45;16.08;;;-1.20;99.90;;;;;;5087942;28;20040;-84
2023/01/22 01:45:28;;;;;;;33.00;16.20;;;-1.20;99.90;;;;;;5071861;28;20143;-84
2023/01/22 01:48:22;;;;;;;34.92;16.75;;;-1.20;99.90;;;;;;5078311;28;20116;-85
2023/01/22 01:50:56;;;;;;;33.42;15.93;;;-1.20;99.90;;;;;;5078266;28;20036;-84
2023/01/22 01:53:23;;;;;;;36.50;16.60;;;-1.20;99.90;;;;;;5067994;28;20044;-84
2023/01/22 01:55:49;;;;;;;38.35;15.98;;;-1.10;99.90;;;;;;5078593;28;20087;-84
2023/01/22 01:58:20;;;;;;;32.28;15.13;;;-0.90;99.90;;;;;;5072598;28;20060;-84
2023/01/22 02:00:59;;;;;;;31.92;14.45;;;-1.00;99.90;;;;;;5040249;28;20498;-85
2023/01/22 02:03:25;;;;;;;29.98;14.65;;;-0.90;99.90;;;;;;5072714;28;20040;-84
2023/01/22 02:05:51;;;;;;;31.88;14.55;;;-0.80;99.90;;;;;;5078633;28;20051;-84
2023/01/22 02:08:17;;;;;;;31.48;14.82;;;-0.60;99.90;;;;;;5065857;28;20036;-84
2023/01/22 02:10:43;;;;;;;30.00;14.20;;;-0.50;99.90;;;;;;5062926;28;20501;-84
2023/01/22 02:13:14;;;;;;;28.75;13.73;;;-0.40;99.90;;;;;;5065443;28;20431;-84
2023/01/22 02:15:41;;;;;;;28.35;13.73;;;-0.30;99.90;;;;;;5060907;28;20056;-85
2023/01/22 02:18:06;;;;;;;30.05;13.57;;;-0.20;99.90;;;;;;5070718;28;20498;-83
2023/01/22 02:20:35;;;;;;;27.42;13.95;;;-0.10;99.90;;;;;;5067795;28;20043;-84
2023/01/22 02:23:01;;;;;;;28.77;14.50;;;-0.10;99.90;;;;;;5075100;28;20048;-85
2023/01/22 02:25:26;;;;;;;24.23;12.18;;;-0.10;99.90;;;;;;5033247;28;20036;-84
2023/01/22 02:27:52;;;;;;;24.13;12.50;;;0.00;99.90;;;;;;5066088;28;20121;-84
2023/01/22 02:30:18;;;;;;;23.05;11.52;;;0.10;99.90;;;;;;5040391;28;20048;-85
2023/01/22 02:32:43;;;;;;;22.90;11.32;;;0.10;96.30;;;;;;5054383;28;20046;-84
2023/01/22 02:35:09;;;;;;;26.52;12.63;;;0.20;93.60;;;;;;5068121;28;20048;-84
2023/01/22 02:37:35;;;;;;;22.42;12.07;;;0.30;91.10;;;;;;5046774;28;20113;-84
2023/01/22 02:40:00;;;;;;;20.67;11.45;;;0.20;88.90;;;;;;5049271;28;20414;-83
2023/01/22 02:42:26;;;;;;;21.35;10.45;;;0.40;86.10;;;;;;5086613;28;20371;-85
2023/01/22 02:44:52;;;;;;;22.13;11.20;;;0.30;81.00;;;;;;5084015;28;20111;-84
2023/01/22 02:47:18;;;;;;;18.25;10.30;;;0.30;70.50;;;;;;5041733;28;20121;-85
2023/01/22 02:49:44;;;;;;;24.38;10.70;;;0.30;61.20;;;;;;5067533;28;20049;-84
2023/01/22 02:52:12;;;;;;;18.75;9.98;;;0.30;39.40;;;;;;5071323;28;20069;-84
2023/01/22 02:54:38;;;;;;;20.73;9.77;;;0.40;35.40;;;;;;5053534;28;20055;-84
2023/01/22 02:57:03;;;;;;;18.17;9.23;;;0.40;32.20;;;;;;5058622;28;20137;-84
2023/01/22 02:59:29;;;;;;;20.73;10.27;;;0.40;34.10;;;;;;5074662;28;20048;-84
2023/01/22 03:01:56;;;;;;;20.85;10.38;;;0.30;50.10;;;;;;5044690;28;20098;-84
2023/01/22 03:04:22;;;;;;;18.70;10.45;;;0.40;50.80;;;;;;5071641;28;20041;-84
2023/01/22 03:06:48;;;;;;;15.95;8.63;;;0.40;57.10;;;;;;5079293;28;20051;-84
2023/01/22 03:09:16;;;;;;;17.95;8.85;;;0.40;50.30;;;;;;5066832;28;20040;-84
2023/01/22 03:11:43;;;;;;;16.52;8.90;;;0.40;32.20;;;;;;5071577;28;20043;-84
2023/01/22 03:22:22;;;;;;;14.45;8.30;;;0.40;1.00;;;;;;5077280;28;20094;-84
2023/01/22 03:24:50;;;;;;;13.48;7.68;;;0.40;6.10;;;;;;5080532;28;20051;-84
2023/01/22 03:27:20;;;;;;;14.05;8.23;;;0.40;1.00;;;;;;5070332;28;20442;-85
2023/01/22 03:29:46;;;;;;;14.35;8.25;;;0.40;18.10;;;;;;5089348;28;20076;-84
2023/01/22 03:32:12;;;;;;;13.98;6.80;;;0.40;19.40;;;;;;5077871;28;20048;-84
2023/01/22 03:34:38;;;;;;;12.65;7.38;;;0.50;5.80;;;;;;5063909;28;20052;-84
2023/01/22 03:37:05;;;;;;;14.40;7.88;;;0.50;15.40;;;;;;5056313;28;20040;-83
2023/01/22 03:39:31;;;;;;;15.98;7.82;;;0.50;18.00;;;;;;5084708;28;20415;-84
2023/01/22 03:41:57;;;;;;;18.13;8.10;;;0.50;10.10;;;;;;5086023;28;20066;-84
2023/01/22 03:44:23;;;;;;;14.82;8.82;;;0.50;20.50;;;;;;5059785;28;20485;-84
2023/01/22 03:46:49;;;;;;;15.02;8.95;;;0.50;42.40;;;;;;5078315;28;20032;-84
2023/01/22 03:49:15;;;;;;;13.75;7.88;;;0.50;55.90;;;;;;5081043;28;20048;-84
2023/01/22 03:51:42;;;;;;;13.30;7.35;;;0.50;49.80;;;;;;5067698;28;20109;-85
2023/01/22 03:54:11;;;;;;;12.88;7.82;;;0.50;53.80;;;;;;5072182;28;20044;-84
2023/01/22 03:56:37;;;;;;;11.95;7.38;;;0.50;90.60;;;;;;5070732;28;20047;-84
2023/01/22 03:59:03;;;;;;;13.50;8.10;;;0.50;79.50;;;;;;5078911;28;20242;-84
2023/01/22 04:01:29;;;;;;;15.38;8.32;;;0.60;93.10;;;;;;5065211;28;20146;-83
2023/01/22 04:03:54;;;;;;;14.75;6.93;;;0.50;99.90;;;;;;5080889;28;20052;-83
2023/01/22 04:06:21;;;;;;;14.05;7.20;;;0.50;99.90;;;;;;5065638;28;20374;-84
2023/01/22 04:08:48;;;;;;;11.93;6.90;;;0.60;99.90;;;;;;5042170;28;20092;-85
2023/01/22 04:11:14;;;;;;;10.57;7.20;;;0.60;99.90;;;;;;5076009;28;20465;-84
2023/01/22 04:13:41;;;;;;;10.32;6.70;;;0.50;99.90;;;;;;5053970;28;20147;-85
2023/01/22 04:16:08;;;;;;;11.40;6.68;;;0.70;99.90;;;;;;5086369;28;20413;-86
2023/01/22 04:18:34;;;;;;;14.65;6.60;;;0.50;99.90;;;;;;5062268;28;20050;-84
2023/01/22 04:21:00;;;;;;;11.43;6.65;;;0.60;99.90;;;;;;5073008;28;20043;-84
2023/01/22 04:23:25;;;;;;;10.93;7.18;;;0.60;99.90;;;;;;5083873;28;20058;-84
2023/01/22 04:25:52;;;;;;;13.30;7.03;;;0.60;99.90;;;;;;5062050;28;20568;-84
2023/01/22 04:28:18;;;;;;;12.40;6.85;;;0.60;99.90;;;;;;5094060;28;20114;-83
2023/01/22 04:30:45;;;;;;;12.07;7.20;;;0.60;99.90;;;;;;5079045;28;20134;-83
2023/01/22 04:33:12;;;;;;;11.68;6.95;;;0.60;99.90;;;;;;5077535;28;20047;-82
2023/01/22 04:35:38;;;;;;;14.52;6.40;;;0.60;99.90;;;;;;5077760;28;20052;-84
2023/01/22 04:38:06;;;;;;;12.00;6.93;;;0.60;99.90;;;;;;5074922;28;20040;-83
2023/01/22 04:40:32;;;;;;;9.80;6.55;;;0.70;99.90;;;;;;5090073;28;20044;-83
2023/01/22 04:43:05;;;;;;;13.98;7.28;;;0.70;99.90;;;;;;5093014;28;20032;-83
2023/01/22 04:45:31;;;;;;;11.57;7.22;;;0.70;99.90;;;;;;5082079;28;20443;-82
2023/01/22 04:47:57;;;;;;;11.00;6.30;;;0.70;99.90;;;;;;5094615;28;20040;-85
2023/01/22 04:50:26;;;;;;;10.68;6.47;;;0.70;99.90;;;;;;5077557;28;20096;-84
2023/01/22 04:52:53;;;;;;;11.20;6.28;;;0.70;99.90;;;;;;5074841;28;20036;-82
2023/01/22 04:55:19;;;;;;;12.57;6.45;;;0.70;99.90;;;;;;5088579;28;20040;-82
2023/01/22 04:57:45;;;;;;;14.48;6.82;;;0.70;99.90;;;;;;5084165;28;20069;-82
2023/01/22 05:00:11;;;;;;;11.70;6.82;;;0.70;99.90;;;;;;5069749;28;20052;-82
2023/01/22 05:02:38;;;;;;;10.65;6.97;;;0.70;99.90;;;;;;5083869;28;20098;-83
2023/01/22 05:05:06;;;;;;;14.30;7.15;;;0.80;99.90;;;;;;5087864;28;20097;-82
2023/01/22 05:07:32;;;;;;;13.52;7.80;;;0.70;99.90;;;;;;5074805;28;20036;-82
2023/01/22 05:09:58;;;;;;;16.45;7.30;;;0.70;99.90;;;;;;5087768;28;20509;-82
2023/01/22 05:12:24;;;;;;;13.10;7.88;;;0.80;99.90;;;;;;5067538;28;20127;-82
2023/01/22 05:14:49;;;;;;;14.80;7.63;;;0.70;99.90;;;;;;5044271;28;20058;-82
2023/01/22 05:17:15;;;;;;;13.98;8.30;;;0.70;99.90;;;;;;5078240;28;20055;-82
2023/01/22 05:19:41;;;;;;;13.70;7.30;;;0.70;99.90;;;;;;5078252;28;20097;-83
2023/01/22 05:22:07;;;;;;;13.98;8.32;;;0.70;99.90;;;;;;5077136;28;20084;-83
2023/01/22 05:24:33;;;;;;;11.13;7.45;;;0.70;99.90;;;;;;5059121;28;20043;-83
2023/01/22 05:26:58;;;;;;;11.52;7.18;;;0.70;99.90;;;;;;5075463;28;20127;-82
2023/01/22 05:29:25;;;;;;;13.63;7.22;;;0.80;99.90;;;;;;5073603;28;20054;-82
2023/01/22 05:31:56;;;;;;;12.52;7.90;;;0.70;99.90;;;;;;5078162;28;20087;-82
2023/01/22 05:34:23;;;;;;;18.27;7.53;;;0.70;99.90;;;;;;5076236;28;20047;-82
2023/01/22 05:36:49;;;;;;;13.50;7.55;;;0.70;99.90;;;;;;5079797;28;20047;-82
2023/01/22 05:39:16;;;;;;;14.45;7.22;;;0.70;99.90;;;;;;5073873;28;20036;-83
2023/01/22 05:41:41;;;;;;;18.70;7.85;;;0.70;99.90;;;;;;5051029;28;20048;-83
2023/01/22 05:44:10;;;;;;;17.00;8.65;;;0.70;99.90;;;;;;5087045;28;20036;-84
2023/01/22 05:46:36;;;;;;;13.98;7.82;;;0.60;99.90;;;;;;5074171;28;20599;-83
2023/01/22 05:49:02;;;;;;;12.77;7.43;;;0.70;99.90;;;;;;5059423;28;20131;-83
2023/01/22 05:51:27;;;;;;;10.40;7.10;;;0.70;99.90;;;;;;5076280;28;20051;-83
2023/01/22 05:53:53;;;;;;;14.05;8.02;;;0.70;99.90;;;;;;5067963;28;20166;-83
2023/01/22 05:56:19;;;;;;;15.27;7.97;;;0.70;99.90;;;;;;5084929;28;20036;-83
2023/01/22 05:58:44;;;;;;;14.63;7.95;;;0.70;99.90;;;;;;5080737;28;20051;-84
2023/01/22 06:01:10;;;;;;;12.70;7.70;;;0.90;99.90;;;;;;5056480;28;20044;-85
2023/01/22 06:03:36;;;;;;;12.57;8.20;;;0.70;99.90;;;;;;5077717;28;20047;-83
2023/01/22 06:06:09;;;;;;;11.70;7.18;;;0.70;99.90;;;;;;5066391;28;20135;-84
2023/01/22 06:08:35;;;;;;;12.07;7.20;;;0.60;99.90;;;;;;5072529;28;20400;-82
2023/01/22 06:11:05;;;;;;;14.73;8.57;;;0.60;99.90;;;;;;5086085;28;20043;-85
2023/01/22 06:13:32;;;;;;;14.60;8.23;;;0.60;99.90;;;;;;5073091;28;20194;-83
2023/01/22 06:15:59;;;;;;;12.07;8.07;;;0.60;99.90;;;;;;5064838;28;20420;-84
2023/01/22 06:18:25;;;;;;;12.43;7.90;;;0.60;99.90;;;;;;5080758;28;20506;-84
2023/01/22 06:20:51;;;;;;;11.50;7.47;;;0.60;99.90;;;;;;5056921;28;20241;-83
2023/01/22 06:23:17;;;;;;;14.77;8.25;;;0.60;99.90;;;;;;5086617;28;20077;-84
2023/01/22 06:25:44;;;;;;;15.57;8.15;;;0.60;99.90;;;;;;5052438;28;20073;-83
2023/01/22 06:28:09;;;;;;;12.48;8.15;;;0.60;99.90;;;;;;5075148;28;20040;-85
2023/01/22 06:30:36;;;;;;;16.45;8.38;;;0.60;99.90;;;;;;5057518;28;20063;-85
2023/01/22 06:33:02;;;;;;;14.35;8.05;;;0.60;99.90;;;;;;5072041;28;20127;-83
2023/01/22 06:35:28;;;;;;;12.95;7.72;;;0.70;99.90;;;;;;5075985;28;20066;-84
2023/01/22 06:37:54;;;;;;;14.38;8.07;;;0.60;99.90;;;;;;5054029;28;20040;-84
2023/01/22 06:40:19;;;;;;;14.25;7.53;;;0.60;99.90;;;;;;5086913;28;20040;-84
2023/01/22 06:42:45;;;;;;;13.07;7.90;;;0.50;99.90;;;;;;5074899;28;20496;-83
2023/01/22 06:45:11;;;;;;;12.32;7.53;;;0.50;99.90;;;;;;5092567;28;20448;-83
2023/01/22 06:47:36;;;;;;;13.50;7.82;;;0.50;99.90;;;;;;5056284;28;20408;-84
2023/01/22 06:50:03;;;;;;;12.52;8.05;;;0.50;99.90;;;;;;5078318;28;20048;-84
2023/01/22 06:52:28;;;;;;;11.20;7.45;;;0.50;99.90;;;;;;5081936;28;20408;-83
2023/01/22 06:54:54;;;;;;;11.60;7.55;;;0.50;99.90;;;;;;5082632;28;20044;-83
2023/01/22 06:57:20;;;;;;;16.20;8.10;;;0.50;99.90;;;;;;5079782;28;20417;-84
2023/01/22 06:59:46;;;;;;;11.77;8.07;;;0.50;99.90;;;;;;5058399;28;20055;-83
2023/01/22 07:02:16;;;;;;;14.05;8.10;;;0.50;99.90;;;;;;5064262;28;20039;-83
2023/01/22 07:04:42;;;;;;;12.90;8.32;;;0.60;99.90;;;;;;5078337;28;20036;-84
2023/01/22 07:07:08;;;;;;;14.18;8.88;;;0.50;99.90;;;;;;5105138;28;20094;-83
2023/01/22 07:09:34;;;;;;;14.52;8.88;;;0.50;99.90;;;;;;5068797;28;20771;-83
2023/01/22 07:12:00;;;;;;;16.08;8.90;;;0.50;99.90;;;;;;5059969;28;20074;-87
2023/01/22 07:14:27;;;;;;;13.52;8.40;;;0.50;99.90;;;;;;5058609;28;20105;-83
2023/01/22 07:16:54;;;;;;;17.05;10.02;;;0.50;99.90;;;;;;5064392;28;20105;-85
2023/01/22 07:19:19;;;;;;;15.10;8.80;;;0.50;99.90;;;;;;5059830;28;20051;-83
2023/01/22 07:21:45;;;;;;;14.50;8.73;;;0.60;99.90;;;;;;5059374;28;20047;-84
2023/01/22 07:24:11;;;;;;;14.85;8.57;;;0.50;99.90;;;;;;5080876;28;20052;-85
2023/01/22 07:26:37;;;;;;;13.05;9.23;;;0.50;99.90;;;;;;5074487;28;20047;-86
2023/01/22 07:29:04;;;;;;;13.20;8.68;;;0.60;99.90;;;;;;5046120;28;20048;-86
2023/01/22 07:31:29;;;;;;;21.45;9.38;;;0.50;99.90;;;;;;5068169;28;20177;-81
2023/01/22 07:33:55;;;;;;;14.55;8.57;;;0.60;99.90;;;;;;5077655;28;20131;-79
2023/01/22 07:36:21;;;;;;;13.77;8.93;;;0.50;99.90;;;;;;5090376;28;20040;-84
2023/01/22 07:38:47;;;;;;;14.07;8.20;;;0.50;99.90;;;;;;5072701;28;20032;-84
2023/01/22 07:41:12;;;;;;;12.73;8.80;;;0.50;99.90;;;;;;5061286;28;20443;-84
2023/01/22 07:43:38;;;;;;;15.65;8.40;;;0.50;99.90;;;;;;5076669;28;20044;-84
2023/01/22 07:46:05;;;;;;;20.60;9.38;;;0.60;99.90;;;;;;5073897;28;20047;-86
2023/01/22 07:48:31;;;;;;;15.70;8.48;;;0.50;99.90;;;;;;5083101;28;20138;-84
2023/01/22 07:51:02;;;;;;;15.43;8.45;;;0.50;99.90;;;;;;5093612;28;20123;-84
2023/01/22 07:53:28;;;;;;;14.32;8.55;;;0.50;99.90;;;;;;5065718;28;20047;-86
2023/01/22 07:55:54;;;;;;;16.52;8.80;;;0.50;99.90;;;;;;5055165;28;20050;-84
2023/01/22 07:58:20;;;;;;;17.63;8.98;;;0.50;99.90;;;;;;5094207;28;20087;-86
2023/01/22 08:00:45;;;;;;;18.05;8.48;;;0.50;99.90;;;;;;5060423;28;20083;-85
2023/01/22 08:03:13;;;;;;;15.18;8.20;;;0.40;99.90;;;;;;5086842;28;20054;-85
2023/01/22 08:05:40;;;;;;;13.60;9.13;;;0.60;99.90;;;;;;5084529;28;20366;-85
2023/01/22 08:08:15;;;;;;;16.40;7.95;;;0.50;99.90;;;;;;5079204;28;20101;-84
2023/01/22 08:10:41;;;;;;;13.77;8.37;;;0.50;99.90;;;;;;5084614;28;20047;-83
2023/01/22 08:13:10;;;;;;;16.45;8.27;;;0.50;99.90;;;;;;5076909;28;20371;-86
2023/01/22 08:15:36;;;;;;;13.75;7.75;;;0.50;99.90;;;;;;5059609;28;20123;-84
2023/01/22 08:18:01;;;;;;;15.65;9.40;;;0.60;99.90;;;;;;5063681;28;20138;-85
2023/01/22 08:20:27;;;;;;;16.13;9.07;;;0.50;99.90;;;;;;5073355;28;20035;-85
2023/01/22 08:22:58;;;;;;;16.17;8.82;;;0.60;99.90;;;;;;5050971;28;20052;-84
2023/01/22 08:25:24;;;;;;;16.42;9.32;;;0.60;99.90;;;;;;5067528;28;20439;-83
2023/01/22 08:27:50;;;;;;;18.33;9.07;;;0.60;99.90;;;;;;5075053;28;20051;-85
2023/01/22 08:30:16;;;;;;;17.10;8.95;;;0.60;99.90;;;;;;5078059;28;20044;-83
2023/01/22 08:32:44;;;;;;;17.55;8.20;;;0.60;99.90;;;;;;5082805;28;20131;-84
2023/01/22 08:35:10;;;;;;;14.75;8.45;;;0.60;99.90;;;;;;5074361;28;20523;-84
2023/01/22 08:37:36;;;;;;;13.95;8.55;;;0.60;99.90;;;;;;5072434;28;20132;-84
2023/01/22 08:40:02;;;;;;;14.27;9.20;;;0.60;99.90;;;;;;5054269;28;20127;-84
2023/01/22 08:42:28;;;;;;;13.60;8.32;;;0.60;99.90;;;;;;5068416;28;20039;-84
2023/01/22 08:44:53;;;;;;;13.50;9.48;;;0.80;99.90;;;;;;5095720;28;20574;-85
2023/01/22 08:47:19;;;;;;;17.55;8.75;;;0.70;99.90;;;;;;5061934;28;20035;-84
2023/01/22 08:49:45;;;;;;;13.32;8.45;;;0.70;99.90;;;;;;5062309;28;20134;-85
2023/01/22 08:52:13;;;;;;;15.50;8.48;;;0.70;99.90;;;;;;5062349;28;20043;-85
2023/01/22 08:54:38;;;;;;;13.27;8.25;;;0.70;99.90;;;;;;5095215;28;20099;-85
2023/01/22 08:57:04;;;;;;;14.38;8.25;;;0.90;99.90;;;;;;5079885;28;20155;-85
2023/01/22 08:59:30;;;;;;;13.50;8.90;;;0.70;99.90;;;;;;5086214;28;20423;-84
2023/01/22 09:01:58;;;;;;;15.10;8.80;;;0.70;99.90;;;;;;5056562;28;20050;-84
2023/01/22 09:04:24;;;;;;;14.35;8.52;;;0.70;99.90;;;;;;5061765;28;20465;-84
2023/01/22 09:06:49;;;;;;;12.85;7.97;;;0.80;99.90;;;;;;5076767;28;20108;-84
2023/01/22 09:09:15;;;;;;;16.10;8.48;;;0.80;99.90;;;;;;5095108;28;20047;-86
2023/01/22 09:11:41;;;;;;;14.07;7.97;;;0.90;99.90;;;;;;5077027;28;20047;-84
2023/01/22 09:14:25;;;;;;;16.30;8.70;;;0.90;99.90;;;;;;5090387;28;20050;-83
2023/01/22 09:16:51;;;;;;;14.63;8.52;;;1.00;99.90;;;;;;5079211;28;20048;-84
2023/01/22 09:19:17;;;;;;;16.00;8.48;;;1.00;99.90;;;;;;5063019;28;20048;-87
2023/01/22 09:21:42;;;;;;;12.93;8.60;;;1.00;99.90;;;;;;5084907;28;20048;-84
2023/01/22 09:24:08;;;;;;;13.45;7.13;;;1.10;99.90;;;;;;5063345;28;20044;-85
2023/01/22 09:26:35;;;;;;;12.43;8.13;;;1.10;99.90;;;;;;5094832;28;20451;-83
2023/01/22 09:29:04;;;;;;;13.98;8.48;;;1.20;99.90;;;;;;5078232;28;20082;-84
2023/01/22 09:31:31;;;;;;;14.07;8.18;;;1.20;99.90;;;;;;5071075;28;20481;-83
2023/01/22 09:33:57;;;;;;;15.48;9.18;;;1.30;99.90;;;;;;5066516;28;20075;-84
2023/01/22 09:36:23;;;;;;;13.32;8.77;;;1.30;99.90;;;;;;5070767;28;20044;-84
2023/01/22 09:38:49;;;;;;;14.10;8.73;;;1.40;99.90;;;;;;5076720;28;20127;-83
2023/01/22 09:41:34;;;;;;;14.75;8.00;;;1.50;99.90;;;;;;5087318;28;20050;-84
2023/01/22 09:44:09;;;;;;;12.05;8.10;;;1.50;99.90;;;;;;5093779;28;20055;-83
2023/01/22 09:46:54;;;;;;;16.10;9.43;;;1.50;99.90;;;;;;5080225;28;20370;-84
2023/01/22 09:49:29;;;;;;;13.93;7.85;;;1.60;99.90;;;;;;5064362;28;20076;-84
2023/01/22 09:51:58;;;;;;;13.63;8.13;;;1.60;99.90;;;;;;5081099;28;20048;-84
2023/01/22 09:54:25;;;;;;;15.18;8.90;;;1.60;99.90;;;;;;5094050;28;20492;-86
2023/01/22 09:56:55;;;;;;;13.05;8.85;;;1.50;99.90;;;;;;5057718;28;20071;-84
2023/01/22 09:59:25;;;;;;;13.43;8.90;;;1.40;99.90;;;;;;5094307;28;20074;-85
2023/01/22 10:02:10;;;;;;;14.13;9.27;;;1.40;99.90;;;;;;5076850;28;20035;-87
2023/01/22 10:04:43;;;;;;;12.07;9.15;;;1.50;99.90;;;;;;5092925;28;20455;-83
2023/01/22 10:07:18;;;;;;;13.65;9.57;;;1.50;99.90;;;;;;5064393;28;20048;-83
2023/01/22 10:09:50;;;;;;;14.80;9.80;;;1.50;99.90;;;;;;5082640;28;20500;-82
2023/01/22 10:12:16;;;;;;;20.65;10.00;;;1.60;99.90;;;;;;5061487;28;20047;-81
2023/01/22 10:14:42;;;;;;;16.08;9.15;;;1.80;99.90;;;;;;5083139;28;20050;-84
2023/01/22 10:17:19;;;;;;;16.63;8.98;;;1.70;99.90;;;;;;5082324;28;20062;-83
2023/01/22 10:20:07;;;;;;;15.85;9.30;;;1.80;99.90;;;;;;5085286;28;20115;-84
2023/01/22 10:22:33;;;;;;;17.80;9.68;;;1.80;99.90;;;;;;5081779;28;20082;-83
2023/01/22 10:24:59;;;;;;;15.02;9.68;;;2.00;99.90;;;;;;5047957;28;20032;-83
2023/01/22 10:27:34;;;;;;;13.95;9.52;;;1.90;99.90;;;;;;5087436;28;20186;-85
2023/01/22 10:30:13;;;;;;;13.68;9.85;;;1.90;99.90;;;;;;5086986;28;20074;-81
2023/01/22 10:32:40;;;;;;;16.30;9.70;;;1.80;99.90;;;;;;5073506;28;20512;-82
2023/01/22 10:35:20;;;;;;;16.45;10.20;;;1.80;99.90;;;;;;5082321;28;20043;-82
2023/01/22 10:37:46;;;;;;;14.43;9.45;;;1.70;99.90;;;;;;5067346;28;20392;-83
2023/01/22 10:40:51;;;;;;;15.00;10.32;;;1.60;99.90;;;;;;5076913;28;20401;-83
2023/01/22 10:43:17;;;;;;;15.77;10.30;;;1.50;99.90;;;;;;5017869;28;20046;-86
2023/01/22 10:45:52;;;;;;;14.80;9.23;;;1.40;99.90;;;;;;5065599;28;20048;-83
2023/01/22 10:48:18;;;;;;;16.40;9.88;;;1.50;99.90;;;;;;5085665;28;20050;-84
2023/01/22 10:50:44;;;;;;;18.15;10.98;;;1.50;99.90;;;;;;5059512;28;20039;-81
2023/01/22 10:53:29;;;;;;;15.90;10.73;;;1.50;99.90;;;;;;5092936;28;20039;-81
2023/01/22 10:55:59;;;;;;;15.98;9.52;;;1.60;99.90;;;;;;5066679;28;20100;-83
2023/01/22 10:58:33;;;;;;;18.27;9.82;;;1.60;99.90;;;;;;5074994;28;20039;-82
2023/01/22 11:01:05;;;;;;;16.35;10.57;;;1.60;99.90;;;;;;5086214;28;20385;-82
2023/01/22 11:03:33;;;;;;;16.52;9.80;;;1.70;99.90;;;;;;5085397;28;20044;-89
2023/01/22 11:06:12;;;;;;;15.40;10.68;;;1.80;99.90;;;;;;5069158;28;20056;-82
2023/01/22 11:08:52;;;;;;;15.07;10.10;;;1.80;99.90;;;;;;5079624;28;20048;-81
2023/01/22 11:11:25;;;;;;;14.48;10.63;;;1.90;99.90;;;;;;5074687;28;20425;-83
2023/01/22 11:13:59;;;;;;;16.00;10.30;;;1.90;99.90;;;;;;5070381;28;20089;-82
2023/01/22 11:16:30;;;;;;;14.77;10.13;;;2.00;99.90;;;;;;5089261;28;20040;-84
2023/01/22 11:19:10;;;;;;;19.73;11.30;;;2.00;99.90;;;;;;5087855;28;20040;-81
2023/01/22 11:21:42;;;;;;;17.15;11.00;;;2.20;99.90;;;;;;5091565;28;20063;-87
2023/01/22 11:24:26;;;;;;;16.05;11.70;;;2.00;99.90;;;;;;5095161;28;20045;-83
2023/01/22 11:26:55;;;;;;;14.80;10.45;;;2.10;99.90;;;;;;5060359;28;20044;-83
2023/01/22 11:29:45;;;;;;;14.60;10.35;;;2.10;99.90;;;;;;5078915;28;20052;-82
2023/01/22 11:32:48;;;;;;;13.90;10.27;;;2.10;99.90;;;;;;5079800;28;20134;-83
2023/01/22 11:35:36;;;;;;;16.17;10.90;;;2.20;99.90;;;;;;5070983;28;20039;-84
2023/01/22 11:38:27;;;;;;;16.15;10.25;;;2.20;99.90;;;;;;5079964;28;20122;-82
2023/01/22 11:40:59;;;;;;;16.42;11.63;;;2.30;99.90;;;;;;5089373;28;20541;-83
2023/01/22 11:44:16;;;;;;;16.05;11.02;;;2.30;99.90;;;;;;5087596;28;20081;-82
2023/01/22 11:47:18;;;;;;;18.08;10.55;;;2.30;99.90;;;;;;5030665;28;20431;-83
2023/01/22 11:49:51;;;;;;;20.17;11.65;;;2.40;99.90;;;;;;5096914;28;20116;-83
2023/01/22 11:52:52;;;;;;;18.13;10.50;;;2.40;99.90;;;;;;5080712;28;20059;-82
2023/01/22 11:55:55;;;;;;;15.88;10.38;;;2.50;99.90;;;;;;5046290;28;20052;-83
2023/01/22 11:58:52;;;;;;;18.88;10.63;;;2.50;99.90;;;;;;5071940;28;20063;-83
2023/01/22 12:01:40;;;;;;;16.50;10.60;;;2.50;99.90;;;;;;5061693;28;20489;-81
2023/01/22 12:04:17;;;;;;;21.33;10.70;;;2.50;99.90;;;;;;5088079;28;20046;-84
2023/01/22 12:06:48;;;;;;;17.10;11.02;;;2.40;99.90;;;;;;5078957;28;20096;-84
2023/01/22 12:09:37;;;;;;;16.55;10.95;;;2.30;99.90;;;;;;5088061;28;20489;-83
2023/01/22 12:12:18;;;;;;;18.38;11.88;;;2.30;99.90;;;;;;5076885;28;20043;-84
2023/01/22 12:15:08;;;;;;;16.27;10.45;;;2.30;99.90;;;;;;5076464;28;20040;-84
2023/01/22 12:18:11;;;;;;;19.30;10.70;;;2.20;99.90;;;;;;5093054;28;20047;-85
2023/01/22 12:20:55;;;;;;;15.20;11.25;;;2.20;99.90;;;;;;5078313;28;20457;-84
2023/01/22 12:23:29;;;;;;;15.30;10.50;;;2.20;99.90;;;;;;5097597;28;20047;-83
2023/01/22 12:26:19;;;;;;;13.75;10.30;;;2.20;99.90;;;;;;5082328;27;20101;-84
2023/01/22 12:29:15;;;;;;;18.48;10.95;;;2.20;99.90;;;;;;5070798;28;20062;-85
2023/01/22 12:31:52;;;;;;;17.00;10.65;;;2.20;99.90;;;;;;5088197;28;20066;-86
2023/01/22 12:34:28;;;;;;;15.63;10.20;;;2.20;99.90;;;;;;5092425;28;20052;-84
2023/01/22 12:36:54;;;;;;;14.93;9.80;;;2.20;99.90;;;;;;5096489;28;20132;-84
2023/01/22 12:40:22;;;;;;;15.13;10.68;;;2.20;99.90;;;;;;5058887;28;20047;-83
2023/01/22 12:42:55;;;;;;;15.85;9.77;;;2.20;99.90;;;;;;5006959;28;20500;-84
2023/01/22 12:45:43;;;;;;;20.95;10.23;;;2.20;99.90;;;;;;5009443;28;20816;-83
2023/01/22 12:48:39;;;;;;;15.80;9.82;;;2.20;99.90;;;;;;5055135;28;20052;-83
2023/01/22 12:51:36;;;;;;;18.52;10.00;;;2.20;99.90;;;;;;5090497;28;20048;-83
2023/01/22 12:54:18;;;;;;;13.27;9.50;;;2.20;99.90;;;;;;5086585;28;20043;-82
2023/01/22 12:56:44;;;;;;;15.10;10.52;;;2.20;99.90;;;;;;5065778;28;20375;-82
2023/01/22 12:59:35;;;;;;;14.93;9.82;;;2.30;99.90;;;;;;5060200;28;20058;-85
2023/01/22 13:02:36;;;;;;;15.70;9.50;;;2.20;99.90;;;;;;5057994;28;20058;-84